createdAt,value
2022-08-22T00:01:12.715Z,44.45
2022-08-22T00:02:41.887Z,36.55
2022-08-22T00:02:42.590Z,37.01
2022-08-22T00:02:45.174Z,37.28
2022-08-22T00:03:01.247Z,38.55
2022-08-22T00:03:04.029Z,37.96
2022-08-22T00:03:53.997Z,44.03
2022-08-22T00:06:34.603Z,44.15
2022-08-22T00:09:31.982Z,44.38
2022-08-22T00:12:15.525Z,45.00
2022-08-22T00:14:51.599Z,44.98
2022-08-22T00:17:35.533Z,44.91
2022-08-22T00:20:08.919Z,45.19
2022-08-22T00:23:20.255Z,45.77
2022-08-22T00:25:56.973Z,45.43
2022-08-22T00:28:24.412Z,45.17
2022-08-22T00:31:18.122Z,45.54
2022-08-22T00:33:51.217Z,45.04
2022-08-22T00:36:36.704Z,45.43
2022-08-22T00:39:16.564Z,45.37
2022-08-22T00:41:52.740Z,45.11
2022-08-22T00:44:41.677Z,45.07
2022-08-22T00:47:27.502Z,44.83
2022-08-22T00:50:27.184Z,44.88
2022-08-22T00:53:23.716Z,45.45
2022-08-22T00:56:03.108Z,45.06
2022-08-22T00:58:42.377Z,45.20
2022-08-22T01:01:15.707Z,45.07
2022-08-22T01:03:54.642Z,44.96
2022-08-22T01:06:44.327Z,45.17
2022-08-22T01:09:43.415Z,45.11
2022-08-22T01:12:29.328Z,45.63
2022-08-22T01:15:05.872Z,45.02
2022-08-22T01:17:54.611Z,45.10
2022-08-22T01:20:59.673Z,45.66
2022-08-22T01:24:10.405Z,45.50
2022-08-22T01:27:15.325Z,45.46
2022-08-22T01:29:53.905Z,45.26
2022-08-22T01:32:36.285Z,45.49
2022-08-22T01:35:34.070Z,45.46
2022-08-22T01:38:11.314Z,45.31
2022-08-22T01:41:17.359Z,45.72
2022-08-22T01:44:38.521Z,46.13
2022-08-22T01:47:06.017Z,45.47
2022-08-22T01:49:46.701Z,45.65
2022-08-22T01:52:44.844Z,45.82
2022-08-22T01:55:25.245Z,45.63
2022-08-22T01:58:03.992Z,46.00
2022-08-22T02:00:53.639Z,46.31
2022-08-22T02:03:31.983Z,46.12
2022-08-22T02:06:07.582Z,46.44
2022-08-22T02:08:59.368Z,46.64
2022-08-22T02:11:57.865Z,46.45
2022-08-22T02:15:02.080Z,46.77
2022-08-22T02:17:35.268Z,46.50
2022-08-22T02:20:20.557Z,46.55
2022-08-22T02:23:19.967Z,46.81
2022-08-22T02:25:56.377Z,46.28
2022-08-22T02:29:01.366Z,46.67
2022-08-22T02:31:55.956Z,46.33
2022-08-22T02:34:37.513Z,46.21
2022-08-22T02:37:08.129Z,45.22
2022-08-22T02:39:57.364Z,44.83
2022-08-22T02:42:59.113Z,43.79
2022-08-22T02:45:45.164Z,43.14
2022-08-22T02:48:34.369Z,42.55
2022-08-22T02:51:14.955Z,42.07
2022-08-22T02:53:55.730Z,41.16
2022-08-22T02:57:06.300Z,40.53
2022-08-22T03:00:31.040Z,39.53
2022-08-22T03:03:00.576Z,39.44
2022-08-22T03:05:50.524Z,38.95
2022-08-22T03:08:25.707Z,38.29
2022-08-22T03:11:16.057Z,37.18
2022-08-22T03:14:03.998Z,36.54
2022-08-22T03:16:45.614Z,36.66
2022-08-22T03:19:18.750Z,36.01
2022-08-22T03:22:09.773Z,35.30
2022-08-22T03:24:55.439Z,34.59
2022-08-22T03:27:33.864Z,34.53
2022-08-22T03:30:12.191Z,34.13
2022-08-22T03:32:56.976Z,32.84
2022-08-22T03:35:36.766Z,32.92
2022-08-22T03:38:33.327Z,32.33
2022-08-22T03:41:13.076Z,32.20
2022-08-22T03:44:12.232Z,30.97
2022-08-22T03:46:58.263Z,30.98
2022-08-22T03:49:28.404Z,30.72
2022-08-22T03:52:08.865Z,30.56
2022-08-22T03:55:07.039Z,29.45
2022-08-22T03:57:52.347Z,29.00
2022-08-22T04:00:37.416Z,29.56
2022-08-22T04:03:42.293Z,28.47
2022-08-22T04:06:39.140Z,27.25
2022-08-22T04:09:36.079Z,27.38
2022-08-22T04:12:20.288Z,27.64
2022-08-22T04:15:17.602Z,27.26
2022-08-22T04:18:02.526Z,26.93
2022-08-22T04:21:08.281Z,26.34
2022-08-22T04:24:07.550Z,25.92
2022-08-22T04:26:56.391Z,26.39
2022-08-22T04:29:32.760Z,25.81
2022-08-22T04:32:38.587Z,26.01
2022-08-22T04:35:27.770Z,25.09
2022-08-22T04:38:04.874Z,24.94
2022-08-22T04:40:36.207Z,24.91
2022-08-22T04:43:14.931Z,23.65
2022-08-22T04:45:50.722Z,23.97
2022-08-22T04:48:45.919Z,23.31
2022-08-22T04:51:16.584Z,23.67
2022-08-22T04:54:12.569Z,23.19
2022-08-22T04:56:49.074Z,22.80
2022-08-22T04:59:19.289Z,22.45
2022-08-22T05:01:55.980Z,22.22
2022-08-22T05:04:39.036Z,22.32
2022-08-22T05:07:36.080Z,21.93
2022-08-22T05:10:11.781Z,21.03
2022-08-22T05:13:11.488Z,20.67
2022-08-22T05:15:46.302Z,21.10
2022-08-22T05:18:36.478Z,20.75
2022-08-22T05:21:08.932Z,19.83
2022-08-22T05:23:44.741Z,20.30
2022-08-22T05:26:15.581Z,19.36
2022-08-22T05:28:53.251Z,19.65
2022-08-22T05:31:35.202Z,18.71
2022-08-22T05:34:11.645Z,19.24
2022-08-22T05:36:43.777Z,19.24
2022-08-22T05:39:18.094Z,19.34
2022-08-22T05:41:46.695Z,19.20
2022-08-22T05:44:23.946Z,18.38
2022-08-22T05:47:23.551Z,17.54
2022-08-22T05:50:05.789Z,18.14
2022-08-22T05:52:56.807Z,17.95
2022-08-22T05:55:28.121Z,17.73
2022-08-22T05:58:30.704Z,16.85
2022-08-22T06:01:47.014Z,17.56
2022-08-22T06:04:31.487Z,17.59
2022-08-22T06:07:26.889Z,16.92
2022-08-22T06:10:26.061Z,16.29
2022-08-22T06:13:11.988Z,17.11
2022-08-22T06:16:05.996Z,16.54
2022-08-22T06:18:38.406Z,16.68
2022-08-22T06:21:19.112Z,16.81
2022-08-22T06:23:56.934Z,16.42
2022-08-22T06:26:34.999Z,16.34
2022-08-22T06:29:03.875Z,16.70
2022-08-22T06:31:45.915Z,16.15
2022-08-22T06:34:24.978Z,16.79
2022-08-22T06:36:56.480Z,16.37
2022-08-22T06:39:29.741Z,16.09
2022-08-22T06:42:03.284Z,16.23
2022-08-22T06:44:38.630Z,16.31
2022-08-22T06:47:10.626Z,16.07
2022-08-22T06:49:40.880Z,16.25
2022-08-22T06:52:37.827Z,15.85
2022-08-22T06:55:10.293Z,15.81
2022-08-22T06:57:45.832Z,15.59
2022-08-22T07:00:17.418Z,16.33
2022-08-22T07:02:49.344Z,15.96
2022-08-22T07:05:25.378Z,15.47
2022-08-22T07:07:53.364Z,15.79
2022-08-22T07:10:22.884Z,15.46
2022-08-22T07:12:54.418Z,15.25
2022-08-22T07:15:37.439Z,14.73
2022-08-22T07:18:10.105Z,14.78
2022-08-22T07:20:42.275Z,14.85
2022-08-22T07:23:13.446Z,14.94
2022-08-22T07:26:15.357Z,14.62
2022-08-22T07:29:03.350Z,14.29
2022-08-22T07:31:46.784Z,14.44
2022-08-22T07:34:23.948Z,14.37
2022-08-22T07:37:07.045Z,14.26
2022-08-22T07:39:42.110Z,14.02
2022-08-22T07:42:28.592Z,14.54
2022-08-22T07:45:03.468Z,14.56
2022-08-22T07:47:56.118Z,14.27
2022-08-22T07:50:30.525Z,14.31
2022-08-22T07:53:06.328Z,14.16
2022-08-22T07:55:42.233Z,14.24
2022-08-22T07:58:18.594Z,14.25
2022-08-22T08:00:49.197Z,14.54
2022-08-22T08:03:21.091Z,14.62
2022-08-22T08:05:49.226Z,14.59
2022-08-22T08:08:44.801Z,14.52
2022-08-22T08:11:18.419Z,14.54
2022-08-22T08:13:50.074Z,14.62
2022-08-22T08:16:20.349Z,14.54
2022-08-22T08:18:51.324Z,14.98
2022-08-22T08:21:28.063Z,14.74
2022-08-22T08:23:56.568Z,14.74
2022-08-22T08:26:36.051Z,14.58
2022-08-22T08:29:07.832Z,14.88
2022-08-22T08:31:44.927Z,15.11
2022-08-22T08:34:18.338Z,15.36
2022-08-22T08:36:55.518Z,15.62
2022-08-22T08:39:35.119Z,15.10
2022-08-22T08:42:18.219Z,15.12
2022-08-22T08:45:04.665Z,15.10
2022-08-22T08:47:35.925Z,15.41
2022-08-22T08:50:29.562Z,14.61
2022-08-22T08:53:21.861Z,15.26
2022-08-22T08:56:04.780Z,14.93
2022-08-22T08:58:55.775Z,14.61
2022-08-22T09:01:29.318Z,15.57
2022-08-22T09:07:25.234Z,15.47
2022-08-22T09:10:41.388Z,15.41
2022-08-22T09:13:46.927Z,16.17
2022-08-22T09:16:35.315Z,15.47
2022-08-22T09:19:23.427Z,15.37
2022-08-22T09:22:05.820Z,15.78
2022-08-22T09:25:06.060Z,15.63
2022-08-22T09:27:44.265Z,15.48
2022-08-22T09:30:15.858Z,15.73
2022-08-22T09:33:12.281Z,15.00
2022-08-22T09:36:05.075Z,15.88
2022-08-22T09:38:48.331Z,15.76
2022-08-22T09:41:44.982Z,16.00
2022-08-22T09:44:34.932Z,16.18
2022-08-22T09:47:25.706Z,15.87
2022-08-22T09:50:02.121Z,16.06
2022-08-22T09:53:08.214Z,16.13
2022-08-22T09:55:48.236Z,16.17
2022-08-22T09:58:43.154Z,16.18
2022-08-22T10:01:23.272Z,15.62
2022-08-22T10:04:33.526Z,15.87
2022-08-22T10:07:19.307Z,16.16
2022-08-22T10:10:03.981Z,15.88
2022-08-22T10:12:38.129Z,16.43
2022-08-22T10:15:16.090Z,16.23
2022-08-22T10:17:59.774Z,16.71
2022-08-22T10:20:36.607Z,17.08
2022-08-22T10:23:32.528Z,17.30
2022-08-22T10:26:23.093Z,17.22
2022-08-22T10:28:59.296Z,17.32
2022-08-22T10:31:59.193Z,17.51
2022-08-22T10:34:46.234Z,17.66
2022-08-22T10:37:31.291Z,18.17
2022-08-22T10:40:13.991Z,18.16
2022-08-22T10:42:59.560Z,18.08
2022-08-22T10:45:36.111Z,18.20
2022-08-22T10:48:38.103Z,18.43
2022-08-22T10:51:16.613Z,18.70
2022-08-22T10:53:56.759Z,18.74
2022-08-22T10:56:48.101Z,18.87
2022-08-22T10:59:33.169Z,18.74
2022-08-22T11:02:25.426Z,19.01
2022-08-22T11:05:29.722Z,18.83
2022-08-22T11:08:12.210Z,18.99
2022-08-22T11:10:52.201Z,19.13
2022-08-22T11:13:27.735Z,18.91
2022-08-22T11:16:00.471Z,18.90
2022-08-22T11:18:58.084Z,18.98
2022-08-22T11:22:01.448Z,19.10
2022-08-22T11:24:56.499Z,19.16
2022-08-22T11:27:46.833Z,19.13
2022-08-22T11:30:21.374Z,19.08
2022-08-22T11:33:09.962Z,19.02
2022-08-22T11:35:49.211Z,19.07
2022-08-22T11:38:57.376Z,19.29
2022-08-22T11:41:28.203Z,19.45
2022-08-22T11:44:06.565Z,19.24
2022-08-22T11:46:37.391Z,19.33
2022-08-22T11:49:32.966Z,19.18
2022-08-22T11:52:06.357Z,18.93
2022-08-22T11:55:03.683Z,19.48
2022-08-22T11:57:48.770Z,19.43
2022-08-22T12:00:26.717Z,19.40
2022-08-22T12:03:02.980Z,19.44
2022-08-22T12:05:51.205Z,19.51
2022-08-22T12:08:22.453Z,19.67
2022-08-22T12:11:19.836Z,19.77
2022-08-22T12:14:06.851Z,19.93
2022-08-22T12:16:56.443Z,19.81
2022-08-22T12:20:05.790Z,20.08
2022-08-22T12:22:58.037Z,19.88
2022-08-22T12:25:57.941Z,20.30
2022-08-22T12:28:44.147Z,20.25
2022-08-22T12:31:20.816Z,19.71
2022-08-22T12:34:18.355Z,20.27
2022-08-22T12:37:09.156Z,19.98
2022-08-22T12:40:00.599Z,20.05
2022-08-22T12:47:19.182Z,19.99
2022-08-22T12:49:52.809Z,20.46
2022-08-22T12:52:20.272Z,20.06
2022-08-22T12:55:18.370Z,20.60
2022-08-22T12:58:11.850Z,20.43
2022-08-22T13:00:45.387Z,20.63
2022-08-22T13:03:35.657Z,20.54
2022-08-22T13:06:25.378Z,20.41
2022-08-22T13:08:54.825Z,20.56
2022-08-22T13:11:23.849Z,20.29
2022-08-22T13:14:00.558Z,20.28
2022-08-22T13:16:39.139Z,20.81
2022-08-22T13:19:32.333Z,20.42
2022-08-22T13:23:15.681Z,20.87
2022-08-22T13:26:24.537Z,20.91
2022-08-22T13:29:24.453Z,21.17
2022-08-22T13:32:03.162Z,20.65
2022-08-22T13:34:45.200Z,21.50
2022-08-22T13:37:17.283Z,20.96
2022-08-22T13:39:52.691Z,21.13
2022-08-22T13:42:30.382Z,20.88
2022-08-22T13:45:03.097Z,21.33
2022-08-22T13:47:39.667Z,21.29
2022-08-22T13:50:30.066Z,20.63
2022-08-22T13:53:30.101Z,20.59
2022-08-22T13:56:15.788Z,20.69
2022-08-22T13:58:50.608Z,21.17
2022-08-22T14:02:07.229Z,20.77
2022-08-22T14:04:39.862Z,20.90
2022-08-22T14:07:11.331Z,21.05
2022-08-22T14:10:14.811Z,21.67
2022-08-22T14:13:18.482Z,21.02
2022-08-22T14:15:47.032Z,21.28
2022-08-22T14:18:20.769Z,21.24
2022-08-22T14:21:39.939Z,21.05
2022-08-22T14:24:08.437Z,21.17
2022-08-22T14:26:47.345Z,21.95
2022-08-22T14:29:19.151Z,21.49
2022-08-22T14:32:23.321Z,21.25
2022-08-22T14:35:03.099Z,21.44
2022-08-22T14:37:38.872Z,21.56
2022-08-22T14:40:28.104Z,21.55
2022-08-22T14:42:59.984Z,21.71
2022-08-22T14:45:35.490Z,21.97
2022-08-22T14:48:30.999Z,22.18
2022-08-22T14:51:08.416Z,21.83
2022-08-22T14:53:40.657Z,22.19
2022-08-22T14:56:27.977Z,22.14
2022-08-22T14:59:06.665Z,21.92
2022-08-22T15:01:54.764Z,22.72
2022-08-22T15:04:28.451Z,21.91
2022-08-22T15:06:59.232Z,22.68
2022-08-22T15:09:56.003Z,22.73
2022-08-22T15:12:34.282Z,22.55
2022-08-22T15:15:13.149Z,22.57
2022-08-22T15:17:45.352Z,22.43
2022-08-22T15:20:27.575Z,22.48
2022-08-22T15:23:25.035Z,22.81
2022-08-22T15:26:05.708Z,22.86
2022-08-22T15:28:53.131Z,22.71
2022-08-22T15:31:22.443Z,22.99
2022-08-22T15:33:51.927Z,23.04
2022-08-22T15:36:22.843Z,23.08
2022-08-22T15:38:52.621Z,23.26
2022-08-22T15:41:31.472Z,23.22
2022-08-22T15:44:32.501Z,23.32
2022-08-22T15:47:03.581Z,23.30
2022-08-22T15:49:39.146Z,23.54
2022-08-22T15:52:20.599Z,23.61
2022-08-22T15:54:51.307Z,23.91
2022-08-22T15:57:39.171Z,23.96
2022-08-22T16:00:28.114Z,24.15
2022-08-22T16:03:06.376Z,24.11
2022-08-22T16:05:55.601Z,24.46
2022-08-22T16:08:33.109Z,24.49
2022-08-22T16:11:03.811Z,24.62
2022-08-22T16:13:31.373Z,24.85
2022-08-22T16:16:12.814Z,25.35
2022-08-22T16:18:40.439Z,24.94
2022-08-22T16:21:28.066Z,25.59
2022-08-22T16:23:58.357Z,25.11
2022-08-22T16:26:32.013Z,25.78
2022-08-22T16:29:02.569Z,25.42
2022-08-22T16:31:38.192Z,25.86
2022-08-22T16:34:17.559Z,25.76
2022-08-22T16:37:18.294Z,25.94
2022-08-22T16:39:50.237Z,26.20
2022-08-22T16:42:22.509Z,25.91
2022-08-22T16:44:52.327Z,26.61
2022-08-22T16:47:37.709Z,26.50
2022-08-22T16:50:21.988Z,26.79
2022-08-22T16:52:57.986Z,26.64
2022-08-22T16:55:31.576Z,26.66
2022-08-22T16:58:57.040Z,27.48
2022-08-22T17:01:43.909Z,27.03
2022-08-22T17:04:17.619Z,27.68
2022-08-22T17:07:35.290Z,27.63
2022-08-22T17:10:12.488Z,27.87
2022-08-22T17:12:42.733Z,27.80
2022-08-22T17:15:39.784Z,28.54
2022-08-22T17:18:25.928Z,28.64
2022-08-22T17:21:18.743Z,28.90
2022-08-22T17:23:59.696Z,28.68
2022-08-22T17:26:56.300Z,28.81
2022-08-22T17:29:53.904Z,28.69
2022-08-22T17:32:33.576Z,28.57
2022-08-22T17:35:22.561Z,29.07
2022-08-22T17:38:17.121Z,28.53
2022-08-22T17:40:56.275Z,28.70
2022-08-22T17:43:55.356Z,28.81
2022-08-22T17:46:43.810Z,28.97
2022-08-22T17:49:23.131Z,28.48
2022-08-22T17:52:00.232Z,28.87
2022-08-22T17:54:37.819Z,28.61
2022-08-22T17:57:25.202Z,28.94
2022-08-22T17:59:59.678Z,28.70
2022-08-22T18:02:36.163Z,28.83
2022-08-22T18:05:08.279Z,28.58
2022-08-22T18:07:46.738Z,28.46
2022-08-22T18:10:43.099Z,28.67
2022-08-22T18:13:31.753Z,28.71
2022-08-22T18:16:07.913Z,28.82
2022-08-22T18:18:39.657Z,28.92
2022-08-22T18:21:15.431Z,28.68
2022-08-22T18:23:52.358Z,28.80
2022-08-22T18:26:51.824Z,28.93
2022-08-22T18:29:25.724Z,29.02
2022-08-22T18:32:15.877Z,28.98
2022-08-22T18:34:56.592Z,29.07
2022-08-22T18:37:35.907Z,29.02
2022-08-22T18:40:21.838Z,28.91
2022-08-22T18:42:50.084Z,29.02
2022-08-22T18:45:20.500Z,29.08
2022-08-22T18:47:56.965Z,28.97
2022-08-22T18:50:34.382Z,29.19
2022-08-22T18:53:02.196Z,29.17
2022-08-22T18:55:44.726Z,29.32
2022-08-22T18:58:15.066Z,29.30
2022-08-22T19:01:18.832Z,29.39
2022-08-22T19:04:23.446Z,29.25
2022-08-22T19:07:10.398Z,29.37
2022-08-22T19:09:49.314Z,29.54
2022-08-22T19:12:31.605Z,29.35
2022-08-22T19:15:28.210Z,29.79
2022-08-22T19:18:10.642Z,29.73
2022-08-22T19:20:59.278Z,29.72
2022-08-22T19:23:32.566Z,29.63
2022-08-22T19:26:21.290Z,29.79
2022-08-22T19:28:49.475Z,29.57
2022-08-22T19:31:24.888Z,29.85
2022-08-22T19:34:34.929Z,29.64
2022-08-22T19:37:32.436Z,29.89
2022-08-22T19:40:12.309Z,29.76
2022-08-22T19:42:43.463Z,29.67
2022-08-22T19:45:29.366Z,29.64
2022-08-22T19:48:11.711Z,29.89
2022-08-22T19:50:41.967Z,29.61
2022-08-22T19:53:38.273Z,29.82
2022-08-22T19:56:23.020Z,29.89
2022-08-22T19:59:20.604Z,30.06
2022-08-22T20:02:18.183Z,29.92
2022-08-22T20:05:08.862Z,30.01
2022-08-22T20:07:49.149Z,29.76
2022-08-22T20:10:37.656Z,29.79
2022-08-22T20:13:18.827Z,30.19
2022-08-22T20:16:05.538Z,30.22
2022-08-22T20:19:05.188Z,29.88
2022-08-22T20:22:01.698Z,29.68
2022-08-22T20:24:51.471Z,29.84
2022-08-22T20:27:42.175Z,29.83
2022-08-22T20:30:24.519Z,29.77
2022-08-22T20:32:59.975Z,29.85
2022-08-22T20:35:33.686Z,29.79
2022-08-22T20:38:07.072Z,29.83
2022-08-22T20:41:14.344Z,30.18
2022-08-22T20:44:06.907Z,30.23
2022-08-22T20:46:47.158Z,29.80
2022-08-22T20:49:30.308Z,30.24
2022-08-22T20:51:59.050Z,30.23
2022-08-22T20:54:34.418Z,30.53
2022-08-22T20:57:16.325Z,30.51
2022-08-22T20:59:59.042Z,30.43
2022-08-22T21:02:35.633Z,30.31
2022-08-22T21:05:12.938Z,30.19
2022-08-22T21:07:43.557Z,30.66
2022-08-22T21:10:44.652Z,30.32
2022-08-22T21:13:27.545Z,30.25
2022-08-22T21:15:58.596Z,30.55
2022-08-22T21:18:34.289Z,30.15
2022-08-22T21:21:17.610Z,30.53
2022-08-22T21:23:50.099Z,30.29
2022-08-22T21:26:25.860Z,30.36
2022-08-22T21:29:07.293Z,30.91
2022-08-22T21:31:43.081Z,30.95
2022-08-22T21:34:29.176Z,30.81
2022-08-22T21:37:13.300Z,30.83
2022-08-22T21:39:50.560Z,30.94
2022-08-22T21:42:33.460Z,31.01
2022-08-22T21:45:04.747Z,31.24
2022-08-22T21:47:38.382Z,31.13
2022-08-22T21:50:26.083Z,31.11
2022-08-22T21:52:56.566Z,31.18
2022-08-22T21:55:29.980Z,30.83
2022-08-22T21:58:35.786Z,31.45
2022-08-22T22:01:30.619Z,31.39
2022-08-22T22:03:59.489Z,31.21
2022-08-22T22:06:30.061Z,31.30
2022-08-22T22:08:58.764Z,31.29
2022-08-22T22:11:26.337Z,31.34
2022-08-22T22:13:53.926Z,31.25
2022-08-22T22:16:26.289Z,31.49
2022-08-22T22:18:54.018Z,31.20
2022-08-22T22:21:21.953Z,31.42
2022-08-22T22:23:50.878Z,31.48
2022-08-22T22:26:19.026Z,31.36
2022-08-22T22:28:48.114Z,31.40
2022-08-22T22:31:18.570Z,31.21
2022-08-22T22:33:46.442Z,31.24
2022-08-22T22:36:19.437Z,31.32
2022-08-22T22:38:47.902Z,31.27
2022-08-22T22:41:17.701Z,31.23
2022-08-22T22:43:45.761Z,31.36
2022-08-22T22:46:13.296Z,31.27
2022-08-22T22:48:40.815Z,31.28
2022-08-22T22:51:10.202Z,31.45
2022-08-22T22:53:42.682Z,31.51
2022-08-22T22:56:15.913Z,31.71
2022-08-22T22:58:44.019Z,31.56
2022-08-22T23:01:19.251Z,31.65
2022-08-22T23:03:48.166Z,31.48
2022-08-22T23:06:23.202Z,31.44
2022-08-22T23:08:51.147Z,31.51
2022-08-22T23:11:21.952Z,31.42
2022-08-22T23:13:49.774Z,31.49
2022-08-22T23:16:20.415Z,31.75
2022-08-22T23:18:48.377Z,32.01
2022-08-22T23:21:25.307Z,31.97
2022-08-22T23:23:58.827Z,32.25
2022-08-22T23:26:27.063Z,32.18
2022-08-22T23:28:54.951Z,32.43
2022-08-22T23:31:39.512Z,32.40
2022-08-22T23:34:10.533Z,32.55
2022-08-22T23:36:38.985Z,32.53
2022-08-22T23:39:08.773Z,33.02
2022-08-22T23:41:37.202Z,33.13
2022-08-22T23:44:06.784Z,33.42
2022-08-22T23:46:36.632Z,33.40
2022-08-22T23:49:06.605Z,33.49
2022-08-22T23:51:34.588Z,33.78
2022-08-22T23:54:02.823Z,33.60
2022-08-22T23:56:33.522Z,33.67
2022-08-22T23:59:05.741Z,33.66
